Terminal Aerodrome Forecast
Issued by NWS

Home | Current Version | Previous Version | Text Only | Print | Product List | Glossary On
Versions: 1 2 3 4 5 6 7 8 9 10 11 12
810
FTUS46 KSTO 241724
TAFRDD
TAF
KRDD 241724Z 2418/2518 VRB04KT P6SM FEW250
     FM242100 18010KT P6SM FEW250
     FM250400 VRB02KT P6SM FEW250=

USA.gov is the U.S. government's official web portal to all federal, state and local government web resources and services.